Time;durP1;ratioP1;P1;durP2;ratioP2;P2;SDS_P1;SDS_P2;PMS_P1;PMS_P2;Temp;Humidity;BMP_temperature;BMP_pressure;BME280_temperature;BME280_humidity;BME280_pressure;Samples;Min_cycle;Max_cycle;Signal;HPM_P1;HPM_P2
2023/06/20 00:02:23;;;;;;;;;;;;;;;20.57;53.32;100531.91;5035737;28;4429;-77
2023/06/20 00:05:15;;;;;;;;;;;;;;;20.56;53.52;100533.00;5033369;28;3849;-77
2023/06/20 00:08:08;;;;;;;;;;;;;;;20.55;53.51;100522.34;5033586;28;3832;-74
2023/06/20 00:10:59;;;;;;;;;;;;;;;20.55;53.18;100527.81;5034797;28;4961;-77
2023/06/20 00:13:51;;;;;;;;;;;;;;;20.54;53.24;100527.00;5032845;28;3912;-75
2023/06/20 00:16:43;;;;;;;;;;;;;;;20.53;53.44;100532.75;5032259;28;3771;-77
2023/06/20 00:19:35;;;;;;;;;;;;;;;20.53;53.47;100535.47;5035645;28;3663;-76
2023/06/20 00:22:27;;;;;;;;;;;;;;;20.52;53.56;100529.19;5037677;28;4236;-76
2023/06/20 00:25:20;;;;;;;;;;;;;;;20.50;53.54;100531.38;5032919;28;4047;-76
2023/06/20 00:28:14;;;;;;;;;;;;;;;20.50;53.14;100525.91;5034427;28;4325;-76
2023/06/20 00:31:05;;;;;;;;;;;;;;;20.49;53.21;100524.25;5031044;28;3792;-79
2023/06/20 00:33:58;;;;;;;;;;;;;;;20.49;53.50;100532.47;5034496;28;3929;-76
2023/06/20 00:36:50;;;;;;;;;;;;;;;20.49;53.27;100528.94;5030068;28;4215;-76
2023/06/20 00:39:41;;;;;;;;;;;;;;;20.47;53.50;100531.13;5024603;28;3734;-75
2023/06/20 00:42:34;;;;;;;;;;;;;;;20.46;53.36;100529.50;5029558;28;3892;-77
2023/06/20 00:45:26;;;;;;;;;;;;;;;20.45;53.30;100520.47;5028874;28;4490;-77
2023/06/20 00:48:17;;;;;;;;;;;;;;;20.45;53.42;100522.41;5028453;28;4005;-77
2023/06/20 00:51:08;;;;;;;;;;;;;;;20.43;53.27;100517.22;5010286;28;4022;-75
2023/06/20 00:54:00;;;;;;;;;;;;;;;20.43;53.48;100519.94;5012242;28;3969;-75
2023/06/20 00:56:52;;;;;;;;;;;;;;;20.43;53.43;100528.16;5028265;28;4085;-78
2023/06/20 00:59:44;;;;;;;;;;;;;;;20.41;53.37;100530.34;5021575;28;4373;-75
2023/06/20 01:02:36;;;;;;;;;;;;;;;20.41;53.28;100528.44;5029296;28;4014;-78
2023/06/20 01:05:28;;;;;;;;;;;;;;;20.39;53.11;100530.66;5028905;28;3847;-77
2023/06/20 01:08:20;;;;;;;;;;;;;;;20.39;53.44;100530.66;5028723;28;3833;-76
2023/06/20 01:11:12;;;;;;;;;;;;;;;20.38;53.13;100545.44;5028364;28;4026;-76
2023/06/20 01:14:03;;;;;;;;;;;;;;;20.39;53.27;100541.59;5031019;28;3976;-77
2023/06/20 01:16:57;;;;;;;;;;;;;;;20.37;53.39;100537.50;5024960;28;3960;-76
2023/06/20 01:19:48;;;;;;;;;;;;;;;20.37;53.04;100541.03;5034114;28;3954;-77
2023/06/20 01:22:41;;;;;;;;;;;;;;;20.36;53.31;100538.63;5027247;28;4050;-76
2023/06/20 01:25:33;;;;;;;;;;;;;;;20.34;53.38;100530.69;5028026;28;3943;-76
2023/06/20 01:28:25;;;;;;;;;;;;;;;20.34;53.10;100541.63;5030935;28;3851;-76
2023/06/20 01:31:16;;;;;;;;;;;;;;;20.34;53.07;100536.16;5030190;28;3977;-76
2023/06/20 01:34:08;;;;;;;;;;;;;;;20.33;53.38;100540.00;5032140;28;3779;-76
2023/06/20 01:37:00;;;;;;;;;;;;;;;20.33;53.02;100541.91;5026772;28;3835;-79
2023/06/20 01:39:52;;;;;;;;;;;;;;;20.32;52.94;100543.81;5020649;28;4610;-78
2023/06/20 01:42:43;;;;;;;;;;;;;;;20.31;53.29;100538.63;5025008;28;3927;-76
2023/06/20 01:45:35;;;;;;;;;;;;;;;20.31;53.05;100535.91;5023381;28;4171;-76
2023/06/20 01:48:27;;;;;;;;;;;;;;;20.30;53.21;100537.84;5025330;28;3975;-77
2023/06/20 01:51:18;;;;;;;;;;;;;;;20.29;52.90;100533.44;5018471;28;3999;-76
2023/06/20 01:54:11;;;;;;;;;;;;;;;20.29;53.18;100540.84;5027270;28;3932;-77
2023/06/20 01:57:02;;;;;;;;;;;;;;;20.29;53.01;100543.56;5021446;28;3928;-76
2023/06/20 01:59:54;;;;;;;;;;;;;;;20.28;53.14;100539.22;5014280;28;3915;-78
2023/06/20 02:02:46;;;;;;;;;;;;;;;20.27;53.17;100541.13;5015032;28;3830;-76
2023/06/20 02:05:38;;;;;;;;;;;;;;;20.26;53.09;100534.00;5011369;28;3828;-77
2023/06/20 02:08:30;;;;;;;;;;;;;;;20.27;52.85;100537.59;5009145;28;3661;-75
2023/06/20 02:11:21;;;;;;;;;;;;;;;20.26;52.98;100538.66;5013476;28;4001;-75
2023/06/20 02:14:14;;;;;;;;;;;;;;;20.25;52.92;100537.84;5005254;28;4008;-77
2023/06/20 02:17:05;;;;;;;;;;;;;;;20.23;52.81;100534.59;5011931;28;3910;-77
2023/06/20 02:19:58;;;;;;;;;;;;;;;20.23;53.20;100537.31;5017012;28;4033;-76
2023/06/20 02:22:50;;;;;;;;;;;;;;;20.23;53.16;100540.06;5014922;28;4100;-76
2023/06/20 02:25:42;;;;;;;;;;;;;;;19.79;53.11;100478.03;5017793;28;3977;-76
2023/06/20 02:28:33;;;;;;;;;;;;;;;20.22;53.11;100523.94;5009268;28;3768;-78
2023/06/20 02:31:26;;;;;;;;;;;;;;;20.21;52.86;100531.34;5018928;28;3862;-76
2023/06/20 02:34:19;;;;;;;;;;;;;;;20.20;52.90;100535.16;5022971;28;4241;-78
2023/06/20 02:37:10;;;;;;;;;;;;;;;20.20;53.12;100526.94;5017868;28;3954;-76
2023/06/20 02:40:02;;;;;;;;;;;;;;;20.18;52.77;100540.94;5018805;28;4086;-78
2023/06/20 02:42:54;;;;;;;;;;;;;;;20.19;53.14;100544.47;5013338;28;3826;-77
2023/06/20 02:45:46;;;;;;;;;;;;;;;20.18;52.84;100545.59;5019858;28;3940;-76
2023/06/20 02:48:38;;;;;;;;;;;;;;;20.16;52.80;100537.66;5015982;28;4057;-76
2023/06/20 02:51:30;;;;;;;;;;;;;;;20.17;52.94;100533.81;5039104;28;3933;-76
2023/06/20 02:54:23;;;;;;;;;;;;;;;20.16;53.01;100548.59;5042342;28;3865;-77
2023/06/20 02:57:14;;;;;;;;;;;;;;;20.15;52.95;100537.94;5043511;28;4013;-77
2023/06/20 03:00:09;;;;;;;;;;;;;;;20.15;53.22;100543.41;5047684;28;3837;-77
2023/06/20 03:03:01;;;;;;;;;;;;;;;20.14;53.00;100539.03;5035697;28;3760;-76
2023/06/20 03:05:56;;;;;;;;;;;;;;;20.14;52.99;100539.03;5049827;28;3905;-77
2023/06/20 03:08:49;;;;;;;;;;;;;;;20.13;52.84;100540.13;5038279;28;4100;-78
2023/06/20 03:11:40;;;;;;;;;;;;;;;20.13;52.99;100537.41;5040993;28;3941;-77
2023/06/20 03:14:33;;;;;;;;;;;;;;;20.12;52.98;100538.50;5037141;28;3856;-77
2023/06/20 03:17:24;;;;;;;;;;;;;;;20.12;53.00;100538.50;5037956;28;4001;-76
2023/06/20 03:20:16;;;;;;;;;;;;;;;20.10;53.07;100540.72;5028879;28;4468;-77
2023/06/20 03:23:08;;;;;;;;;;;;;;;20.09;52.98;100542.63;5035919;28;3946;-76
2023/06/20 03:26:00;;;;;;;;;;;;;;;20.09;52.70;100539.91;5038210;28;3929;-75
2023/06/20 03:28:51;;;;;;;;;;;;;;;20.08;52.77;100545.63;5032624;28;3654;-77
2023/06/20 03:31:43;;;;;;;;;;;;;;;20.07;52.83;100547.56;5028716;28;3995;-76
2023/06/20 03:34:35;;;;;;;;;;;;;;;20.08;52.60;100543.72;5026923;28;3656;-77
2023/06/20 03:37:27;;;;;;;;;;;;;;;20.07;52.69;100544.00;5039418;28;3957;-76
2023/06/20 03:40:19;;;;;;;;;;;;;;;20.07;52.67;100538.53;5034475;28;3683;-77
2023/06/20 03:43:11;;;;;;;;;;;;;;;20.05;52.50;100538.81;5035182;28;3719;-76
2023/06/20 03:46:03;;;;;;;;;;;;;;;20.05;52.83;100538.81;5035676;28;3876;-76
2023/06/20 03:48:54;;;;;;;;;;;;;;;20.04;52.76;100539.91;5035198;28;3869;-76
2023/06/20 03:51:45;;;;;;;;;;;;;;;20.04;52.94;100536.38;5025372;28;4262;-78
2023/06/20 03:54:39;;;;;;;;;;;;;;;20.03;52.79;100530.09;5030465;28;4507;-78
2023/06/20 03:57:31;;;;;;;;;;;;;;;20.03;52.72;100534.72;5029224;28;3946;-76
2023/06/20 04:00:23;;;;;;;;;;;;;;;20.02;52.79;100536.63;5039181;28;3996;-77
2023/06/20 04:03:15;;;;;;;;;;;;;;;20.03;52.60;100542.91;5029972;28;3933;-77
2023/06/20 04:06:06;;;;;;;;;;;;;;;20.01;52.99;100543.22;5041694;28;3975;-76
2023/06/20 04:08:57;;;;;;;;;;;;;;;20.00;52.71;100540.75;5037801;28;3866;-76
2023/06/20 04:11:50;;;;;;;;;;;;;;;20.00;52.54;100546.22;5029986;28;3830;-76
2023/06/20 04:14:42;;;;;;;;;;;;;;;20.00;52.75;100543.50;5028192;28;4484;-76
2023/06/20 04:17:34;;;;;;;;;;;;;;;19.98;52.73;100541.06;5036203;28;3822;-77
2023/06/20 04:20:26;;;;;;;;;;;;;;;19.98;52.70;100549.25;5033069;28;3862;-76
2023/06/20 04:23:18;;;;;;;;;;;;;;;19.97;52.50;100544.88;5034439;28;3798;-77
2023/06/20 04:26:11;;;;;;;;;;;;;;;19.96;52.57;100546.78;5034045;28;4306;-75
2023/06/20 04:29:02;;;;;;;;;;;;;;;19.96;52.50;100541.31;5027056;28;3867;-77
2023/06/20 04:31:53;;;;;;;;;;;;;;;19.96;52.81;100545.97;5029847;28;3940;-77
2023/06/20 04:34:44;;;;;;;;;;;;;;;19.95;52.72;100544.34;5029720;28;3939;-77
2023/06/20 04:37:38;;;;;;;;;;;;;;;19.95;52.43;100544.34;5028969;28;4000;-77
2023/06/20 04:40:29;;;;;;;;;;;;;;;19.94;52.74;100546.28;5032166;28;3859;-78
2023/06/20 04:43:22;;;;;;;;;;;;;;;19.95;52.60;100550.63;5026375;28;3911;-77
2023/06/20 04:46:15;;;;;;;;;;;;;;;19.92;52.54;100545.72;5029753;28;3736;-77
2023/06/20 04:49:07;;;;;;;;;;;;;;;19.93;52.71;100541.06;5031506;28;3978;-77
2023/06/20 04:51:58;;;;;;;;;;;;;;;19.93;52.61;100552.00;5034995;28;3725;-75
2023/06/20 04:54:50;;;;;;;;;;;;;;;19.92;52.73;100551.19;5046188;28;4061;-75
2023/06/20 04:57:43;;;;;;;;;;;;;;;19.93;52.72;100552.00;5031803;28;3857;-76
2023/06/20 05:00:36;;;;;;;;;;;;;;;19.91;52.69;100549.56;5052129;28;3988;-77
2023/06/20 05:03:28;;;;;;;;;;;;;;;19.61;52.45;100508.69;5034369;28;3776;-75
2023/06/20 05:06:20;;;;;;;;;;;;;;;19.90;52.56;100553.38;5041143;28;3857;-76
2023/06/20 05:09:11;;;;;;;;;;;;;;;19.90;52.59;100556.13;5050281;28;4002;-76
2023/06/20 05:12:03;;;;;;;;;;;;;;;19.90;52.63;100549.84;5049583;28;3980;-75
2023/06/20 05:14:55;;;;;;;;;;;;;;;19.89;52.35;100549.03;5042276;28;4035;-76
2023/06/20 05:17:47;;;;;;;;;;;;;;;19.89;52.69;100559.16;5048430;28;4022;-76
2023/06/20 05:20:39;;;;;;;;;;;;;;;19.90;52.41;100558.03;5056830;28;4098;-76
2023/06/20 05:23:31;;;;;;;;;;;;;;;19.89;52.32;100553.69;5058013;28;3874;-76
2023/06/20 05:26:23;;;;;;;;;;;;;;;19.90;52.46;100563.50;5056557;28;3924;-76
2023/06/20 05:29:14;;;;;;;;;;;;;;;19.89;52.59;100559.97;5055907;28;3968;-77
2023/06/20 05:32:06;;;;;;;;;;;;;;;19.90;52.40;100556.13;5055888;28;4005;-77
2023/06/20 05:34:58;;;;;;;;;;;;;;;19.92;52.25;100561.31;5045717;28;3891;-76
2023/06/20 05:37:50;;;;;;;;;;;;;;;19.47;52.44;100500.28;5050340;28;4083;-76
2023/06/20 05:40:41;;;;;;;;;;;;;;;19.90;52.34;100558.03;5049576;28;3917;-76
2023/06/20 05:43:33;;;;;;;;;;;;;;;19.93;52.01;100563.75;5044886;28;3897;-77
2023/06/20 05:46:24;;;;;;;;;;;;;;;19.90;52.15;100561.59;5035562;28;3985;-76
2023/06/20 05:49:16;;;;;;;;;;;;;;;19.91;52.45;100559.66;5031029;28;4300;-78
2023/06/20 05:52:08;;;;;;;;;;;;;;;19.90;52.37;100564.31;5031829;28;3794;-76
2023/06/20 05:54:59;;;;;;;;;;;;;;;19.93;52.39;100560.22;5024483;28;3911;-77
2023/06/20 05:57:53;;;;;;;;;;;;;;;19.92;52.01;100566.78;5030461;28;4890;-78
2023/06/20 06:00:45;;;;;;;;;;;;;;;19.47;52.47;100492.94;5030430;28;3905;-76
2023/06/20 06:03:36;;;;;;;;;;;;;;;19.91;52.41;100568.72;5033642;28;3863;-76
2023/06/20 06:06:31;;;;;;;;;;;;;;;19.93;52.05;100577.41;5041575;28;3849;-77
2023/06/20 06:09:23;;;;;;;;;;;;;;;19.93;52.18;100579.34;5039314;28;3729;-77
2023/06/20 06:12:15;;;;;;;;;;;;;;;19.93;52.23;100582.06;5040667;28;3808;-77
2023/06/20 06:15:08;;;;;;;;;;;;;;;19.93;52.38;100582.06;5033264;28;3495;-76
2023/06/20 06:18:00;;;;;;;;;;;;;;;19.93;52.06;100587.53;5040638;28;3649;-76
2023/06/20 06:20:52;;;;;;;;;;;;;;;19.94;52.30;100584.53;5042144;28;3717;-76
2023/06/20 06:23:44;;;;;;;;;;;;;;;19.92;52.36;100583.19;5042727;28;3492;-76
2023/06/20 06:26:35;;;;;;;;;;;;;;;19.93;52.31;100585.63;5042730;28;3995;-75
2023/06/20 06:29:27;;;;;;;;;;;;;;;19.92;52.01;100588.66;5044128;28;3551;-75
2023/06/20 06:32:20;;;;;;;;;;;;;;;19.91;52.21;100578.78;5046746;28;3892;-76
2023/06/20 06:35:11;;;;;;;;;;;;;;;19.90;51.96;100586.19;5055146;28;3867;-76
2023/06/20 06:38:03;;;;;;;;;;;;;;;19.91;51.95;100584.25;5054729;28;4115;-74
2023/06/20 06:40:55;;;;;;;;;;;;;;;19.90;52.07;100585.38;5059123;28;4083;-74
2023/06/20 06:43:47;;;;;;;;;;;;;;;19.91;52.33;100590.56;5056135;28;5669;-77
2023/06/20 06:46:39;;;;;;;;;;;;;;;19.89;52.29;100595.50;5036816;28;3944;-74
2023/06/20 06:49:31;;;;;;;;;;;;;;;19.92;52.18;100607.78;5055477;28;4062;-75
2023/06/20 06:52:23;;;;;;;;;;;;;;;19.89;52.05;100605.59;5051676;28;3879;-78
2023/06/20 06:55:15;;;;;;;;;;;;;;;19.90;52.27;100601.78;5048863;28;4143;-76
2023/06/20 06:58:07;;;;;;;;;;;;;;;19.89;52.16;100606.41;5053947;28;3958;-77
2023/06/20 07:00:59;;;;;;;;;;;;;;;19.89;51.93;100600.94;5047927;28;3817;-77
2023/06/20 07:03:51;;;;;;;;;;;;;;;19.90;51.84;100601.78;5042206;28;3788;-78
2023/06/20 07:06:43;;;;;;;;;;;;;;;19.88;52.11;100607.53;5047408;28;4110;-77
2023/06/20 07:09:36;;;;;;;;;;;;;;;19.87;52.09;100607.78;5035115;28;3908;-75
2023/06/20 07:12:28;;;;;;;;;;;;;;;19.87;52.07;100605.88;5038704;28;3839;-75
2023/06/20 07:15:20;;;;;;;;;;;;;;;19.86;52.01;100606.16;5035918;28;5061;-76
2023/06/20 07:18:12;;;;;;;;;;;;;;;19.86;52.23;100612.44;5037574;28;3890;-76
2023/06/20 07:21:04;;;;;;;;;;;;;;;19.86;52.31;100615.19;5040554;28;3782;-77
2023/06/20 07:23:56;;;;;;;;;;;;;;;19.85;52.16;100607.25;5044821;28;3951;-76
2023/06/20 07:26:48;;;;;;;;;;;;;;;19.84;52.25;100613.81;5051304;28;3846;-77
2023/06/20 07:29:40;;;;;;;;;;;;;;;19.85;52.16;100618.19;5053897;28;4005;-76
2023/06/20 07:32:32;;;;;;;;;;;;;;;19.84;52.36;100620.09;5055583;28;3785;-76
2023/06/20 07:35:24;;;;;;;;;;;;;;;19.85;52.11;100621.72;5059934;28;4011;-75
2023/06/20 07:38:16;;;;;;;;;;;;;;;19.85;52.36;100631.84;5050418;28;3925;-75
2023/06/20 07:41:08;;;;;;;;;;;;;;;19.85;52.46;100643.59;5050579;28;4014;-76
2023/06/20 07:44:00;;;;;;;;;;;;;;;19.85;52.44;100642.78;5031674;28;4011;-76
2023/06/20 07:46:52;;;;;;;;;;;;;;;19.84;52.29;100641.97;5012004;28;3640;-77
2023/06/20 07:49:44;;;;;;;;;;;;;;;19.84;52.36;100646.63;5033190;28;3579;-77
2023/06/20 07:52:36;;;;;;;;;;;;;;;19.84;52.24;100647.44;5032770;28;3578;-76
2023/06/20 07:55:28;;;;;;;;;;;;;;;19.85;52.66;100642.78;5051091;28;3622;-76
2023/06/20 07:58:20;;;;;;;;;;;;;;;19.84;52.38;100647.44;5049321;28;3655;-75
2023/06/20 08:01:13;;;;;;;;;;;;;;;19.83;52.31;100651.25;5037606;28;3919;-76
2023/06/20 08:04:05;;;;;;;;;;;;;;;19.83;52.39;100651.25;5035442;28;3330;-76
2023/06/20 08:06:56;;;;;;;;;;;;;;;19.84;52.37;100646.63;5041475;28;3802;-77
2023/06/20 08:09:48;;;;;;;;;;;;;;;19.83;52.42;100651.25;5049480;28;3746;-77
2023/06/20 08:12:40;;;;;;;;;;;;;;;19.82;52.36;100651.53;5058814;28;3920;-77
2023/06/20 08:15:32;;;;;;;;;;;;;;;19.83;52.43;100655.91;5055337;28;3961;-78
2023/06/20 08:18:24;;;;;;;;;;;;;;;19.83;52.26;100658.66;5058218;28;4052;-76
2023/06/20 08:21:16;;;;;;;;;;;;;;;19.82;52.35;100660.53;5050268;28;4091;-78
2023/06/20 08:24:08;;;;;;;;;;;;;;;19.82;52.43;100665.19;5047890;28;3893;-76
2023/06/20 08:27:02;;;;;;;;;;;;;;;19.82;52.46;100657.81;5056264;28;4021;-76
2023/06/20 08:29:54;;;;;;;;;;;;;;;19.82;52.65;100648.81;5050978;28;4040;-78
2023/06/20 08:32:47;;;;;;;;;;;;;;;19.81;52.42;100653.44;5048595;28;3905;-80
2023/06/20 08:35:39;;;;;;;;;;;;;;;19.82;52.19;100659.72;5058390;28;4157;-77
2023/06/20 08:38:31;;;;;;;;;;;;;;;19.80;52.55;100659.22;5051703;28;3770;-78
2023/06/20 08:41:23;;;;;;;;;;;;;;;19.81;52.21;100672.59;5044106;28;3802;-79
2023/06/20 08:44:15;;;;;;;;;;;;;;;19.80;52.36;100670.94;5057249;28;4168;-79
2023/06/20 08:47:07;;;;;;;;;;;;;;;19.80;52.38;100664.69;5055123;28;3890;-75
2023/06/20 08:49:59;;;;;;;;;;;;;;;19.78;52.55;100664.13;5056147;28;4003;-77
2023/06/20 08:52:52;;;;;;;;;;;;;;;19.80;52.36;100675.59;5055537;28;3949;-77
2023/06/20 08:55:44;;;;;;;;;;;;;;;19.79;52.66;100673.94;5043529;28;5184;-77
2023/06/20 08:58:36;;;;;;;;;;;;;;;19.79;52.11;100672.03;5057752;28;4349;-76
2023/06/20 09:01:28;;;;;;;;;;;;;;;19.78;52.46;100670.41;5056702;28;4100;-77
2023/06/20 09:04:20;;;;;;;;;;;;;;;19.77;52.21;100673.44;5055132;28;3976;-77
2023/06/20 09:07:12;;;;;;;;;;;;;;;19.77;52.41;100676.16;5056455;28;3963;-79
2023/06/20 09:10:04;;;;;;;;;;;;;;;19.76;52.19;100666.31;5054608;28;3999;-77
2023/06/20 09:12:56;;;;;;;;;;;;;;;19.77;52.10;100667.97;5055801;28;3933;-75
2023/06/20 09:15:48;;;;;;;;;;;;;;;19.75;52.08;100662.75;5055341;28;3940;-75
2023/06/20 09:18:40;;;;;;;;;;;;;;;19.74;52.51;100664.69;5055469;28;4124;-76
2023/06/20 09:21:32;;;;;;;;;;;;;;;19.73;52.19;100665.75;5054547;28;4077;-76
2023/06/20 09:24:24;;;;;;;;;;;;;;;19.74;52.04;100663.88;5050945;28;3852;-77
2023/06/20 09:27:16;;;;;;;;;;;;;;;19.74;52.18;100666.59;5046568;28;3811;-75
2023/06/20 09:30:08;;;;;;;;;;;;;;;19.73;52.13;100665.75;5056943;28;3929;-77
2023/06/20 09:32:59;;;;;;;;;;;;;;;19.73;52.51;100664.94;5037922;28;4139;-78
2023/06/20 09:35:51;;;;;;;;;;;;;;;19.72;52.24;100658.66;5049403;28;3973;-77
2023/06/20 09:38:45;;;;;;;;;;;;;;;19.72;52.46;100664.13;5043399;28;5161;-78
2023/06/20 09:41:36;;;;;;;;;;;;;;;19.72;52.53;100669.59;5037087;28;3929;-77
2023/06/20 09:44:28;;;;;;;;;;;;;;;19.71;52.53;100667.16;5041185;28;4046;-78
2023/06/20 09:47:20;;;;;;;;;;;;;;;19.70;52.39;100666.31;5048093;28;3963;-78
2023/06/20 09:50:13;;;;;;;;;;;;;;;19.70;52.58;100662.78;5041998;28;4416;-77
2023/06/20 09:53:05;;;;;;;;;;;;;;;19.70;52.28;100657.31;5023835;28;3665;-77
2023/06/20 09:55:57;;;;;;;;;;;;;;;19.71;52.18;100667.97;5028178;28;3884;-76
2023/06/20 09:58:49;;;;;;;;;;;;;;;19.70;52.37;100670.97;5032260;28;4124;-78
2023/06/20 10:01:41;;;;;;;;;;;;;;;19.72;52.53;100668.78;5033188;28;3846;-77
2023/06/20 10:04:33;;;;;;;;;;;;;;;19.71;52.31;100670.72;5029478;28;4008;-76
2023/06/20 10:07:25;;;;;;;;;;;;;;;19.71;52.13;100667.16;5040035;28;3852;-78
2023/06/20 10:10:17;;;;;;;;;;;;;;;19.71;52.17;100669.91;5028646;28;3913;-76
2023/06/20 10:13:09;;;;;;;;;;;;;;;19.72;52.18;100666.06;5034686;28;4030;-76
2023/06/20 10:16:01;;;;;;;;;;;;;;;19.72;52.33;100674.25;5036551;28;3878;-76
2023/06/20 10:18:53;;;;;;;;;;;;;;;19.72;52.45;100669.59;5033597;28;4003;-75
2023/06/20 10:21:45;;;;;;;;;;;;;;;19.73;52.27;100670.41;5037526;28;4000;-76
2023/06/20 10:24:37;;;;;;;;;;;;;;;19.72;52.28;100671.53;5036738;28;3892;-76
2023/06/20 10:27:29;;;;;;;;;;;;;;;19.72;52.27;100672.34;5034880;28;4025;-78
2023/06/20 10:30:21;;;;;;;;;;;;;;;19.72;52.41;100669.59;5019783;28;3743;-76
2023/06/20 10:33:13;;;;;;;;;;;;;;;19.73;52.18;100678.59;5027731;28;3960;-76
2023/06/20 10:36:05;;;;;;;;;;;;;;;19.73;52.50;100662.22;5036413;28;3931;-75
2023/06/20 10:38:59;;;;;;;;;;;;;;;19.72;52.19;100671.53;5039764;28;3984;-76
2023/06/20 10:41:51;;;;;;;;;;;;;;;19.72;52.42;100677.78;5037429;28;3881;-76
2023/06/20 10:44:43;;;;;;;;;;;;;;;19.72;52.18;100674.25;5039131;28;3969;-75
2023/06/20 10:47:35;;;;;;;;;;;;;;;19.72;52.40;100674.25;5036365;28;3906;-78
2023/06/20 10:50:27;;;;;;;;;;;;;;;19.72;52.16;100672.34;5050998;28;3830;-77
2023/06/20 10:53:19;;;;;;;;;;;;;;;19.72;52.07;100679.72;5057575;28;4232;-75
2023/06/20 10:56:11;;;;;;;;;;;;;;;19.70;52.23;100669.06;5059694;28;3920;-74
2023/06/20 10:59:03;;;;;;;;;;;;;;;19.70;52.14;100663.59;5059473;28;4165;-75
2023/06/20 11:01:55;;;;;;;;;;;;;;;19.70;52.23;100663.59;5059162;28;3873;-76
2023/06/20 11:04:47;;;;;;;;;;;;;;;19.70;52.57;100657.31;5060210;28;4164;-76
2023/06/20 11:07:39;;;;;;;;;;;;;;;19.69;52.23;100652.94;5059835;28;4285;-76
2023/06/20 11:10:31;;;;;;;;;;;;;;;19.69;52.13;100659.22;5059661;28;3964;-76
2023/06/20 11:13:23;;;;;;;;;;;;;;;19.70;52.11;100666.31;5058189;28;3858;-75
2023/06/20 11:16:15;;;;;;;;;;;;;;;19.70;52.23;100668.22;5057299;28;3869;-78
2023/06/20 11:19:07;;;;;;;;;;;;;;;19.69;52.42;100672.88;5058079;28;3909;-77
2023/06/20 11:21:59;;;;;;;;;;;;;;;19.69;52.20;100675.63;5058634;28;4028;-76
2023/06/20 11:24:51;;;;;;;;;;;;;;;19.69;52.58;100666.59;5059586;28;3944;-76
2023/06/20 11:27:43;;;;;;;;;;;;;;;19.68;52.32;100668.53;5057454;28;4099;-76
2023/06/20 11:30:35;;;;;;;;;;;;;;;19.69;52.31;100663.88;5058451;28;3930;-75
2023/06/20 11:33:27;;;;;;;;;;;;;;;19.70;52.54;100662.78;5058787;28;4186;-77
2023/06/20 11:36:19;;;;;;;;;;;;;;;19.69;52.06;100663.88;5057790;28;3904;-77
2023/06/20 11:39:12;;;;;;;;;;;;;;;19.69;52.34;100656.50;5055269;28;4257;-76
2023/06/20 11:42:04;;;;;;;;;;;;;;;19.69;52.22;100655.69;5057708;28;4254;-76
2023/06/20 11:44:57;;;;;;;;;;;;;;;19.68;52.39;100659.53;5059691;28;4017;-77
2023/06/20 11:47:49;;;;;;;;;;;;;;;19.69;52.57;100661.97;5059575;28;4039;-78
2023/06/20 11:50:42;;;;;;;;;;;;;;;19.70;52.47;100668.22;5059582;28;4092;-76
2023/06/20 11:53:34;;;;;;;;;;;;;;;19.69;52.28;100663.88;5060039;28;3873;-76
2023/06/20 11:56:26;;;;;;;;;;;;;;;19.69;52.20;100664.69;5061416;28;4180;-76
2023/06/20 11:59:18;;;;;;;;;;;;;;;19.70;52.54;100663.59;5060472;28;3915;-77
2023/06/20 12:02:10;;;;;;;;;;;;;;;19.70;52.18;100660.84;5058189;28;3879;-75
2023/06/20 12:05:02;;;;;;;;;;;;;;;19.70;52.46;100662.78;5050773;28;4023;-77
2023/06/20 12:07:54;;;;;;;;;;;;;;;19.70;52.16;100663.59;5052352;28;3933;-79
2023/06/20 12:10:45;;;;;;;;;;;;;;;19.70;52.32;100671.78;5040893;28;4110;-75
2023/06/20 12:13:37;;;;;;;;;;;;;;;19.70;52.30;100665.50;5045227;28;3828;-76
2023/06/20 12:16:31;;;;;;;;;;;;;;;19.70;52.47;100657.31;5046133;28;4100;-77
2023/06/20 12:19:22;;;;;;;;;;;;;;;19.71;52.15;100662.50;5042817;28;4077;-77
2023/06/20 12:22:14;;;;;;;;;;;;;;;19.70;52.49;100663.59;5049182;28;3692;-77
2023/06/20 12:25:05;;;;;;;;;;;;;;;19.70;52.48;100666.31;5057889;28;4018;-76
2023/06/20 12:27:58;;;;;;;;;;;;;;;19.70;52.50;100662.78;5058254;28;3930;-77
2023/06/20 12:30:49;;;;;;;;;;;;;;;19.70;52.43;100662.78;5058135;28;3840;-77
2023/06/20 12:33:41;;;;;;;;;;;;;;;19.70;52.63;100660.84;5057910;28;3895;-77
2023/06/20 12:36:33;;;;;;;;;;;;;;;19.72;52.23;100655.13;5042698;28;3844;-78
2023/06/20 12:39:26;;;;;;;;;;;;;;;19.71;52.45;100653.50;5057305;28;3979;-77
2023/06/20 12:42:18;;;;;;;;;;;;;;;19.72;52.32;100657.84;5057908;28;3957;-77
2023/06/20 12:45:11;;;;;;;;;;;;;;;19.72;52.46;100660.59;5056628;28;4071;-76
2023/06/20 12:48:03;;;;;;;;;;;;;;;19.73;52.19;100662.22;5058827;28;3855;-76
2023/06/20 12:50:55;;;;;;;;;;;;;;;19.73;52.42;100654.03;5060347;28;3891;-76
2023/06/20 12:53:47;;;;;;;;;;;;;;;19.73;52.17;100657.56;5058993;28;3787;-75
2023/06/20 12:56:40;;;;;;;;;;;;;;;19.73;52.41;100664.94;5045329;28;3869;-77
2023/06/20 12:59:32;;;;;;;;;;;;;;;19.72;52.23;100666.06;5053941;28;4236;-77
2023/06/20 13:02:23;;;;;;;;;;;;;;;19.73;52.32;100668.50;5059942;28;3804;-77
2023/06/20 13:05:15;;;;;;;;;;;;;;;19.73;52.25;100670.41;5059679;28;3987;-77
2023/06/20 13:08:08;;;;;;;;;;;;;;;19.74;52.51;100675.63;5058706;28;3865;-77
2023/06/20 13:10:59;;;;;;;;;;;;;;;19.74;52.54;100674.81;5057807;28;3927;-77
2023/06/20 13:13:51;;;;;;;;;;;;;;;19.73;52.50;100671.22;5051802;28;4034;-75
2023/06/20 13:16:43;;;;;;;;;;;;;;;19.74;52.10;100664.69;5040881;28;3875;-76
2023/06/20 13:19:34;;;;;;;;;;;;;;;19.76;52.46;100674.50;5041893;28;3824;-76
2023/06/20 13:22:27;;;;;;;;;;;;;;;19.76;52.24;100669.03;5055705;28;3771;-75
2023/06/20 13:25:19;;;;;;;;;;;;;;;19.77;52.21;100674.25;5041720;28;3952;-75
2023/06/20 13:28:11;;;;;;;;;;;;;;;19.77;52.26;100681.63;5053892;28;3878;-77
2023/06/20 13:31:03;;;;;;;;;;;;;;;19.45;52.27;100633.59;5041762;28;3939;-78
2023/06/20 13:33:55;;;;;;;;;;;;;;;19.77;52.42;100670.69;5043037;28;4022;-78
2023/06/20 13:36:47;;;;;;;;;;;;;;;19.78;52.25;100677.78;5041766;28;3593;-77
2023/06/20 13:39:39;;;;;;;;;;;;;;;19.78;52.56;100678.59;5052349;28;4413;-75
2023/06/20 13:42:31;;;;;;;;;;;;;;;19.78;52.44;100680.53;5042676;28;3713;-78
2023/06/20 13:45:23;;;;;;;;;;;;;;;19.78;52.84;100686.00;5043138;28;3812;-77
2023/06/20 13:48:15;;;;;;;;;;;;;;;19.78;52.57;100699.66;5041069;28;3670;-75
2023/06/20 13:51:07;;;;;;;;;;;;;;;19.79;52.62;100693.88;5021526;28;4162;-75
2023/06/20 13:53:59;;;;;;;;;;;;;;;19.80;52.72;100698.28;5021235;28;3816;-76
2023/06/20 13:56:51;;;;;;;;;;;;;;;19.79;52.65;100691.16;5021200;28;3843;-76
2023/06/20 13:59:43;;;;;;;;;;;;;;;19.80;52.75;100701.00;5020934;28;3989;-77
2023/06/20 14:02:35;;;;;;;;;;;;;;;19.80;52.65;100706.47;5020492;28;3811;-76
2023/06/20 14:05:27;;;;;;;;;;;;;;;19.80;52.39;100698.28;5029321;28;3792;-75
2023/06/20 14:08:18;;;;;;;;;;;;;;;19.81;52.71;100701.81;5019801;28;3918;-77
2023/06/20 14:11:10;;;;;;;;;;;;;;;19.81;52.69;100704.56;5023638;28;4079;-77
2023/06/20 14:14:02;;;;;;;;;;;;;;;19.82;52.70;100706.19;5029222;28;3773;-77
2023/06/20 14:16:54;;;;;;;;;;;;;;;19.81;52.55;100702.63;5030863;28;4203;-77
2023/06/20 14:19:46;;;;;;;;;;;;;;;19.82;52.37;100698.00;5032028;28;3844;-76
2023/06/20 14:22:38;;;;;;;;;;;;;;;19.46;52.69;100646.16;5002646;28;3761;-76
2023/06/20 14:25:30;;;;;;;;;;;;;;;19.83;52.74;100697.72;5033721;28;3867;-77
2023/06/20 14:28:24;;;;;;;;;;;;;;;19.83;52.77;100703.19;5035662;28;4172;-75
2023/06/20 14:31:16;;;;;;;;;;;;;;;19.83;52.77;100703.19;5041465;28;3856;-76
2023/06/20 14:34:08;;;;;;;;;;;;;;;19.83;52.43;100700.47;5041171;28;3785;-76
2023/06/20 14:36:59;;;;;;;;;;;;;;;19.84;52.81;100701.28;5040411;28;3927;-75
2023/06/20 14:39:54;;;;;;;;;;;;;;;19.84;52.74;100698.53;5042384;28;4055;-78
2023/06/20 14:42:46;;;;;;;;;;;;;;;19.85;52.82;100690.03;5037735;28;3805;-77
2023/06/20 14:45:37;;;;;;;;;;;;;;;19.85;52.67;100692.78;5038852;28;3673;-77
2023/06/20 14:48:29;;;;;;;;;;;;;;;19.84;52.57;100688.41;5040905;28;3781;-76
2023/06/20 14:51:21;;;;;;;;;;;;;;;19.85;52.87;100690.03;5040856;28;3623;-76
2023/06/20 14:54:13;;;;;;;;;;;;;;;19.85;52.76;100691.97;5040699;28;3719;-75
2023/06/20 14:57:05;;;;;;;;;;;;;;;19.86;52.92;100697.16;5040825;28;3928;-76